EWG8ET EDDL-LDSP
Flight info
| Callsign | EWG8ET |
|---|---|
| Flight time | 1h 42m |
| Altitude | 39000 |
| Route | DODEN7Z DODEN Y853 BOMBI DCT DETEV DCT DINKU M867 XERUM DCT BAVAX DCT RADIZ DCT ALIVO DCT NUPSO |
| Aircraft | A319/M-SDE3FGHIRWY/LB1 |
Departure
| Time | 2026-05-06 14:53 |
|---|---|
| Airport | Düsseldorf Airport (EDDL) |
Arrival
| Time | 2026-05-06 16:35 |
|---|---|
| Airport | Split Saint Jerome Airport (LDSP) |
| Time | Latitude | Longitude | Altitude | Speed | Heading |
|---|---|---|---|---|---|
| 2026-05-06 14:25 | 51.28059 | 6.76705 | 131 ft | 0 kts | 276° |
| 2026-05-06 14:42 | 51.28058 | 6.76718 | 130 ft | 4 kts | 274° |
| 2026-05-06 14:43 | 51.28057 | 6.76761 | 130 ft | 4 kts | 287° |
| 2026-05-06 14:43 | 51.28049 | 6.76781 | 130 ft | 1 kts | 342° |
| 2026-05-06 14:43 | 51.28067 | 6.76788 | 130 ft | 4 kts | 25° |
| 2026-05-06 14:43 | 51.28091 | 6.76805 | 130 ft | 3 kts | 18° |
| 2026-05-06 14:44 | 51.28095 | 6.76806 | 130 ft | 1 kts | 17° |
| 2026-05-06 14:49 | 51.28096 | 6.76807 | 130 ft | 1 kts | 17° |
| 2026-05-06 14:50 | 51.28113 | 6.76816 | 130 ft | 4 kts | 17° |
| 2026-05-06 14:50 | 51.28140 | 6.76829 | 130 ft | 7 kts | 17° |
| 2026-05-06 14:50 | 51.28231 | 6.76847 | 130 ft | 18 kts | 7° |
| 2026-05-06 14:50 | 51.28350 | 6.76752 | 128 ft | 23 kts | 322° |
| 2026-05-06 14:51 | 51.28416 | 6.76623 | 126 ft | 14 kts | 248° |
| 2026-05-06 14:51 | 51.28349 | 6.76485 | 126 ft | 17 kts | 232° |
| 2026-05-06 14:51 | 51.28274 | 6.76328 | 126 ft | 19 kts | 232° |
| 2026-05-06 14:51 | 51.28191 | 6.76157 | 129 ft | 20 kts | 232° |
| 2026-05-06 14:52 | 51.28099 | 6.75961 | 130 ft | 24 kts | 233° |
| 2026-05-06 14:52 | 51.27988 | 6.75727 | 130 ft | 29 kts | 232° |
| 2026-05-06 14:52 | 51.27967 | 6.75547 | 129 ft | 16 kts | 328° |
| 2026-05-06 14:52 | 51.28098 | 6.75502 | 127 ft | 24 kts | 28° |
| 2026-05-06 14:53 | 51.28268 | 6.75841 | 130 ft | 69 kts | 53° |
| 2026-05-06 14:53 | 51.28687 | 6.76719 | 131 ft | 128 kts | 52° |
| 2026-05-06 14:53 | 51.29288 | 6.77966 | 500 ft | 141 kts | 51° |
| 2026-05-06 14:53 | 51.29871 | 6.79231 | 1125 ft | 142 kts | 51° |
| 2026-05-06 14:54 | 51.30469 | 6.80531 | 1595 ft | 154 kts | 51° |
| 2026-05-06 14:54 | 51.31166 | 6.81993 | 1907 ft | 176 kts | 51° |
| 2026-05-06 14:54 | 51.31960 | 6.83654 | 2244 ft | 201 kts | 51° |
| 2026-05-06 14:54 | 51.32865 | 6.85537 | 2713 ft | 225 kts | 51° |
| 2026-05-06 14:55 | 51.33855 | 6.87651 | 3328 ft | 247 kts | 52° |
| 2026-05-06 14:55 | 51.34851 | 6.89969 | 4252 ft | 256 kts | 60° |
| 2026-05-06 14:55 | 51.35282 | 6.92767 | 5178 ft | 267 kts | 90° |
| 2026-05-06 14:55 | 51.35032 | 6.95691 | 6142 ft | 271 kts | 99° |
| 2026-05-06 14:56 | 51.34716 | 6.98689 | 7122 ft | 276 kts | 99° |
| 2026-05-06 14:56 | 51.34399 | 7.01735 | 8076 ft | 280 kts | 99° |
| 2026-05-06 14:56 | 51.34081 | 7.04828 | 8984 ft | 284 kts | 99° |
| 2026-05-06 14:56 | 51.33760 | 7.07980 | 9858 ft | 289 kts | 99° |
| 2026-05-06 14:57 | 51.33429 | 7.11241 | 10362 ft | 309 kts | 99° |
| 2026-05-06 14:57 | 51.32959 | 7.14703 | 10780 ft | 326 kts | 109° |
| 2026-05-06 14:57 | 51.32023 | 7.18041 | 11501 ft | 331 kts | 122° |
| 2026-05-06 14:57 | 51.30656 | 7.21019 | 12266 ft | 334 kts | 135° |
| 2026-05-06 14:58 | 51.29009 | 7.23654 | 13027 ft | 337 kts | 137° |
| 2026-05-06 14:58 | 51.27330 | 7.26298 | 13776 ft | 340 kts | 137° |
| 2026-05-06 14:58 | 51.25637 | 7.28963 | 14502 ft | 345 kts | 137° |
| 2026-05-06 14:58 | 51.23945 | 7.31625 | 15217 ft | 348 kts | 137° |
| 2026-05-06 14:59 | 51.22217 | 7.34358 | 15928 ft | 351 kts | 137° |
| 2026-05-06 14:59 | 51.20473 | 7.37117 | 16620 ft | 355 kts | 137° |
| 2026-05-06 14:59 | 51.18713 | 7.39897 | 17278 ft | 357 kts | 137° |
| 2026-05-06 14:59 | 51.16938 | 7.42693 | 17939 ft | 361 kts | 137° |
| 2026-05-06 15:00 | 51.15142 | 7.45509 | 18583 ft | 363 kts | 138° |
| 2026-05-06 15:00 | 51.13323 | 7.48326 | 19203 ft | 367 kts | 138° |
| 2026-05-06 15:00 | 51.11471 | 7.51161 | 19816 ft | 371 kts | 139° |
| 2026-05-06 15:00 | 51.09598 | 7.54010 | 20403 ft | 374 kts | 139° |
| 2026-05-06 15:01 | 51.07707 | 7.56882 | 20979 ft | 378 kts | 139° |
| 2026-05-06 15:01 | 51.05794 | 7.59781 | 21541 ft | 382 kts | 139° |
| 2026-05-06 15:01 | 51.03861 | 7.62709 | 22081 ft | 386 kts | 138° |
| 2026-05-06 15:01 | 51.01910 | 7.65665 | 22619 ft | 390 kts | 138° |
| 2026-05-06 15:02 | 50.99945 | 7.68651 | 23152 ft | 393 kts | 138° |
| 2026-05-06 15:02 | 50.97964 | 7.71666 | 23672 ft | 396 kts | 139° |
| 2026-05-06 15:02 | 50.95831 | 7.74453 | 24163 ft | 397 kts | 148° |
| 2026-05-06 15:02 | 50.93491 | 7.76801 | 24638 ft | 400 kts | 150° |
| 2026-05-06 15:03 | 50.91118 | 7.79139 | 25139 ft | 402 kts | 150° |
| 2026-05-06 15:03 | 50.88726 | 7.81492 | 25624 ft | 405 kts | 150° |
| 2026-05-06 15:03 | 50.86330 | 7.83842 | 26113 ft | 407 kts | 150° |
| 2026-05-06 15:03 | 50.83916 | 7.86206 | 26573 ft | 409 kts | 150° |
| 2026-05-06 15:04 | 50.81491 | 7.88577 | 27038 ft | 411 kts | 151° |
| 2026-05-06 15:04 | 50.79055 | 7.90956 | 27500 ft | 413 kts | 151° |
| 2026-05-06 15:04 | 50.76607 | 7.93349 | 27953 ft | 414 kts | 151° |
| 2026-05-06 15:04 | 50.74155 | 7.95752 | 28400 ft | 416 kts | 151° |
| 2026-05-06 15:05 | 50.71695 | 7.98160 | 28842 ft | 416 kts | 150° |
| 2026-05-06 15:05 | 50.69234 | 8.00563 | 29335 ft | 416 kts | 151° |
| 2026-05-06 15:05 | 50.66771 | 8.02967 | 29783 ft | 416 kts | 151° |
| 2026-05-06 15:05 | 50.64301 | 8.05376 | 30219 ft | 418 kts | 152° |
| 2026-05-06 15:06 | 50.62666 | 8.06963 | 30493 ft | 418 kts | 152° |
| 2026-05-06 15:06 | 50.60201 | 8.09439 | 30857 ft | 422 kts | 148° |
| 2026-05-06 15:06 | 50.57900 | 8.12361 | 31190 ft | 427 kts | 144° |
| 2026-05-06 15:06 | 50.55614 | 8.15367 | 31515 ft | 429 kts | 144° |
| 2026-05-06 15:07 | 50.53322 | 8.18379 | 31941 ft | 429 kts | 144° |
| 2026-05-06 15:07 | 50.51072 | 8.21472 | 32344 ft | 432 kts | 138° |
| 2026-05-06 15:07 | 50.49131 | 8.25125 | 32718 ft | 437 kts | 133° |
| 2026-05-06 15:07 | 50.47236 | 8.28856 | 33108 ft | 438 kts | 133° |
| 2026-05-06 15:08 | 50.45344 | 8.32598 | 33510 ft | 438 kts | 133° |
| 2026-05-06 15:08 | 50.43449 | 8.36352 | 33900 ft | 439 kts | 133° |
| 2026-05-06 15:08 | 50.41553 | 8.40102 | 34262 ft | 439 kts | 133° |
| 2026-05-06 15:08 | 50.39651 | 8.43851 | 34620 ft | 439 kts | 133° |
| 2026-05-06 15:09 | 50.37744 | 8.47600 | 35006 ft | 439 kts | 133° |
| 2026-05-06 15:09 | 50.35867 | 8.51290 | 35363 ft | 438 kts | 133° |
| 2026-05-06 15:09 | 50.33970 | 8.55013 | 35710 ft | 437 kts | 133° |
| 2026-05-06 15:09 | 50.32068 | 8.58736 | 36056 ft | 437 kts | 133° |
| 2026-05-06 15:10 | 50.30175 | 8.62436 | 36384 ft | 436 kts | 133° |
| 2026-05-06 15:10 | 50.28276 | 8.66139 | 36697 ft | 436 kts | 133° |
| 2026-05-06 15:10 | 50.26373 | 8.69842 | 37000 ft | 436 kts | 133° |
| 2026-05-06 15:10 | 50.24474 | 8.73537 | 37308 ft | 435 kts | 133° |
| 2026-05-06 15:11 | 50.22574 | 8.77227 | 37597 ft | 435 kts | 133° |
| 2026-05-06 15:11 | 50.20684 | 8.80896 | 37876 ft | 434 kts | 133° |
| 2026-05-06 15:11 | 50.18796 | 8.84563 | 38152 ft | 434 kts | 133° |
| 2026-05-06 15:11 | 50.16903 | 8.88236 | 38405 ft | 434 kts | 133° |
| 2026-05-06 15:12 | 50.15008 | 8.91904 | 38635 ft | 433 kts | 133° |
| 2026-05-06 15:12 | 50.13112 | 8.95561 | 38760 ft | 435 kts | 133° |
| 2026-05-06 15:12 | 50.11202 | 8.99233 | 38783 ft | 437 kts | 133° |
| 2026-05-06 15:13 | 50.07378 | 9.06601 | 38782 ft | 437 kts | 133° |
| 2026-05-06 15:13 | 50.03543 | 9.13955 | 38785 ft | 438 kts | 133° |
| 2026-05-06 15:14 | 49.99701 | 9.21312 | 38784 ft | 438 kts | 133° |
| 2026-05-06 15:14 | 49.95849 | 9.28656 | 38784 ft | 438 kts | 133° |
| 2026-05-06 15:15 | 49.91994 | 9.35978 | 38786 ft | 438 kts | 133° |
| 2026-05-06 15:15 | 49.88137 | 9.43288 | 38787 ft | 438 kts | 134° |
| 2026-05-06 15:16 | 49.84270 | 9.50599 | 38795 ft | 438 kts | 134° |
| 2026-05-06 15:16 | 49.80130 | 9.57447 | 38789 ft | 434 kts | 141° |
| 2026-05-06 15:17 | 49.75721 | 9.63837 | 38791 ft | 434 kts | 141° |
| 2026-05-06 15:17 | 49.71307 | 9.70224 | 38794 ft | 435 kts | 141° |
| 2026-05-06 15:18 | 49.66891 | 9.76603 | 38800 ft | 434 kts | 141° |
| 2026-05-06 15:18 | 49.62473 | 9.82980 | 38802 ft | 435 kts | 141° |
| 2026-05-06 15:19 | 49.58049 | 9.89359 | 38796 ft | 436 kts | 141° |
| 2026-05-06 15:19 | 49.53610 | 9.95721 | 38805 ft | 435 kts | 141° |
| 2026-05-06 15:20 | 49.49179 | 10.02063 | 38813 ft | 435 kts | 141° |
| 2026-05-06 15:20 | 49.44732 | 10.08393 | 38812 ft | 435 kts | 141° |
| 2026-05-06 15:21 | 49.40287 | 10.14713 | 38814 ft | 435 kts | 142° |
| 2026-05-06 15:21 | 49.35854 | 10.21020 | 38809 ft | 435 kts | 142° |
| 2026-05-06 15:22 | 49.31408 | 10.27313 | 38811 ft | 435 kts | 142° |
| 2026-05-06 15:22 | 49.26958 | 10.33585 | 38813 ft | 435 kts | 142° |
| 2026-05-06 15:23 | 49.22330 | 10.39477 | 38813 ft | 429 kts | 153° |
| 2026-05-06 15:23 | 49.17221 | 10.44123 | 38817 ft | 427 kts | 154° |
| 2026-05-06 15:24 | 49.12108 | 10.48772 | 38809 ft | 427 kts | 154° |
| 2026-05-06 15:24 | 49.07010 | 10.53414 | 38809 ft | 427 kts | 154° |
| 2026-05-06 15:25 | 49.01917 | 10.58047 | 38807 ft | 426 kts | 154° |
| 2026-05-06 15:25 | 48.96820 | 10.62655 | 38809 ft | 426 kts | 154° |
| 2026-05-06 15:26 | 48.91720 | 10.67244 | 38806 ft | 425 kts | 154° |
| 2026-05-06 15:26 | 48.86624 | 10.71824 | 38803 ft | 425 kts | 154° |
| 2026-05-06 15:27 | 48.81597 | 10.76577 | 38799 ft | 430 kts | 146° |
| 2026-05-06 15:27 | 48.77358 | 10.83091 | 38797 ft | 436 kts | 137° |
| 2026-05-06 15:28 | 48.73306 | 10.89927 | 38798 ft | 436 kts | 137° |
| 2026-05-06 15:28 | 48.69229 | 10.96739 | 38794 ft | 436 kts | 137° |
| 2026-05-06 15:29 | 48.65149 | 11.03531 | 38791 ft | 436 kts | 137° |
| 2026-05-06 15:29 | 48.61068 | 11.10324 | 38781 ft | 436 kts | 137° |
| 2026-05-06 15:30 | 48.56988 | 11.17108 | 38780 ft | 436 kts | 137° |
| 2026-05-06 15:30 | 48.52901 | 11.23870 | 38776 ft | 436 kts | 137° |
| 2026-05-06 15:31 | 48.48813 | 11.30620 | 38772 ft | 436 kts | 137° |
| 2026-05-06 15:31 | 48.44826 | 11.37190 | 38779 ft | 435 kts | 138° |
| 2026-05-06 15:32 | 48.38715 | 11.47246 | 38782 ft | 435 kts | 138° |
| 2026-05-06 15:32 | 48.34619 | 11.53967 | 38786 ft | 436 kts | 138° |
| 2026-05-06 15:33 | 48.30519 | 11.60655 | 38786 ft | 434 kts | 138° |
| 2026-05-06 15:33 | 48.26426 | 11.67295 | 38787 ft | 433 kts | 139° |
| 2026-05-06 15:34 | 48.22137 | 11.73587 | 38788 ft | 430 kts | 143° |
| 2026-05-06 15:34 | 48.17685 | 11.79531 | 38793 ft | 428 kts | 144° |
| 2026-05-06 15:35 | 48.13232 | 11.85466 | 38797 ft | 429 kts | 143° |
| 2026-05-06 15:35 | 48.08822 | 11.91478 | 38801 ft | 429 kts | 143° |
| 2026-05-06 15:36 | 48.04421 | 11.97523 | 38801 ft | 429 kts | 143° |
| 2026-05-06 15:36 | 48.00017 | 12.03546 | 38800 ft | 429 kts | 143° |
| 2026-05-06 15:37 | 47.95600 | 12.09551 | 38801 ft | 429 kts | 143° |
| 2026-05-06 15:37 | 47.91178 | 12.15541 | 38794 ft | 429 kts | 143° |
| 2026-05-06 15:38 | 47.86754 | 12.21509 | 38793 ft | 429 kts | 143° |
| 2026-05-06 15:38 | 47.82325 | 12.27469 | 38777 ft | 429 kts | 143° |
| 2026-05-06 15:39 | 47.77905 | 12.33423 | 38771 ft | 428 kts | 143° |
| 2026-05-06 15:39 | 47.73481 | 12.39360 | 38761 ft | 428 kts | 144° |
| 2026-05-06 15:40 | 47.69053 | 12.45279 | 38756 ft | 428 kts | 144° |
| 2026-05-06 15:40 | 47.64624 | 12.51203 | 38755 ft | 428 kts | 144° |
| 2026-05-06 15:41 | 47.60019 | 12.56741 | 38744 ft | 425 kts | 149° |
| 2026-05-06 15:41 | 47.55264 | 12.61940 | 38741 ft | 424 kts | 149° |
| 2026-05-06 15:42 | 47.50506 | 12.67144 | 38748 ft | 426 kts | 149° |
| 2026-05-06 15:42 | 47.45742 | 12.72347 | 38751 ft | 425 kts | 149° |
| 2026-05-06 15:43 | 47.40984 | 12.77524 | 38748 ft | 425 kts | 149° |
| 2026-05-06 15:43 | 47.36244 | 12.82671 | 38754 ft | 426 kts | 149° |
| 2026-05-06 15:44 | 47.31476 | 12.87843 | 38760 ft | 425 kts | 149° |
| 2026-05-06 15:44 | 47.26707 | 12.93012 | 38768 ft | 425 kts | 149° |
| 2026-05-06 15:45 | 47.21934 | 12.98163 | 38778 ft | 426 kts | 149° |
| 2026-05-06 15:45 | 47.17148 | 13.03308 | 38789 ft | 426 kts | 149° |
| 2026-05-06 15:46 | 47.12363 | 13.08439 | 38791 ft | 426 kts | 149° |
| 2026-05-06 15:46 | 47.08387 | 13.12703 | 38799 ft | 426 kts | 149° |
| 2026-05-06 15:47 | 47.03579 | 13.17860 | 38789 ft | 429 kts | 149° |
| 2026-05-06 15:47 | 46.98736 | 13.23035 | 38798 ft | 432 kts | 149° |
| 2026-05-06 15:48 | 46.93869 | 13.28214 | 38808 ft | 433 kts | 149° |
| 2026-05-06 15:48 | 46.88988 | 13.33386 | 38815 ft | 434 kts | 149° |
| 2026-05-06 15:49 | 46.84091 | 13.38571 | 38818 ft | 435 kts | 149° |
| 2026-05-06 15:49 | 46.79188 | 13.43759 | 38824 ft | 435 kts | 149° |
| 2026-05-06 15:50 | 46.75934 | 13.47195 | 38830 ft | 436 kts | 149° |
| 2026-05-06 15:50 | 46.69352 | 13.54127 | 38843 ft | 436 kts | 149° |
| 2026-05-06 15:51 | 46.64426 | 13.59296 | 38850 ft | 436 kts | 149° |
| 2026-05-06 15:51 | 46.59527 | 13.64423 | 38866 ft | 436 kts | 149° |
| 2026-05-06 15:52 | 46.54596 | 13.69579 | 38872 ft | 437 kts | 149° |
| 2026-05-06 15:52 | 46.49664 | 13.74736 | 38878 ft | 437 kts | 149° |
| 2026-05-06 15:53 | 46.44723 | 13.79882 | 38883 ft | 437 kts | 149° |
| 2026-05-06 15:53 | 46.39785 | 13.85005 | 38885 ft | 436 kts | 149° |
| 2026-05-06 15:54 | 46.34844 | 13.90120 | 38886 ft | 436 kts | 149° |
| 2026-05-06 15:54 | 46.29897 | 13.95238 | 38889 ft | 437 kts | 149° |
| 2026-05-06 15:55 | 46.24947 | 14.00341 | 38893 ft | 437 kts | 149° |
| 2026-05-06 15:55 | 46.19993 | 14.05435 | 38909 ft | 437 kts | 149° |
| 2026-05-06 15:56 | 46.15029 | 14.10520 | 38928 ft | 437 kts | 149° |
| 2026-05-06 15:56 | 46.10071 | 14.15598 | 38928 ft | 437 kts | 149° |
| 2026-05-06 15:57 | 46.05106 | 14.20679 | 38936 ft | 437 kts | 149° |
| 2026-05-06 15:57 | 46.00135 | 14.25750 | 38941 ft | 438 kts | 149° |
| 2026-05-06 15:58 | 45.95163 | 14.30809 | 38947 ft | 438 kts | 149° |
| 2026-05-06 15:58 | 45.90196 | 14.35856 | 38945 ft | 437 kts | 149° |
| 2026-05-06 15:59 | 45.85260 | 14.40849 | 38943 ft | 437 kts | 149° |
| 2026-05-06 15:59 | 45.80287 | 14.45873 | 38945 ft | 437 kts | 149° |
| 2026-05-06 16:00 | 45.75307 | 14.50889 | 38945 ft | 438 kts | 149° |
| 2026-05-06 16:00 | 45.70324 | 14.55906 | 38950 ft | 437 kts | 149° |
| 2026-05-06 16:01 | 45.65345 | 14.60905 | 38950 ft | 437 kts | 149° |
| 2026-05-06 16:01 | 45.60371 | 14.65893 | 38961 ft | 437 kts | 149° |
| 2026-05-06 16:02 | 45.55389 | 14.70873 | 38967 ft | 437 kts | 150° |
| 2026-05-06 16:02 | 45.53742 | 14.72518 | 38968 ft | 437 kts | 150° |
| 2026-05-06 16:03 | 45.44912 | 14.80278 | 38973 ft | 431 kts | 156° |
| 2026-05-06 16:03 | 45.39636 | 14.84408 | 38976 ft | 431 kts | 156° |
| 2026-05-06 16:04 | 45.34401 | 14.88597 | 38972 ft | 432 kts | 155° |
| 2026-05-06 16:04 | 45.29194 | 14.92853 | 38972 ft | 432 kts | 155° |
| 2026-05-06 16:05 | 45.23993 | 14.97131 | 38976 ft | 432 kts | 155° |
| 2026-05-06 16:05 | 45.18793 | 15.01379 | 38979 ft | 431 kts | 155° |
| 2026-05-06 16:06 | 45.13576 | 15.05603 | 38981 ft | 431 kts | 155° |
| 2026-05-06 16:06 | 45.08364 | 15.09817 | 38979 ft | 431 kts | 155° |
| 2026-05-06 16:07 | 45.03191 | 15.13987 | 38980 ft | 431 kts | 155° |
| 2026-05-06 16:07 | 44.97949 | 15.18228 | 38982 ft | 431 kts | 155° |
| 2026-05-06 16:08 | 44.92781 | 15.22387 | 38982 ft | 430 kts | 155° |
| 2026-05-06 16:08 | 44.87586 | 15.26560 | 38980 ft | 430 kts | 155° |
| 2026-05-06 16:09 | 44.82395 | 15.30726 | 38979 ft | 429 kts | 155° |
| 2026-05-06 16:09 | 44.77208 | 15.34877 | 38968 ft | 429 kts | 156° |
| 2026-05-06 16:10 | 44.74609 | 15.36953 | 38571 ft | 431 kts | 155° |
| 2026-05-06 16:10 | 44.71986 | 15.39046 | 37974 ft | 435 kts | 156° |
| 2026-05-06 16:10 | 44.69354 | 15.41147 | 37441 ft | 434 kts | 156° |
| 2026-05-06 16:10 | 44.66719 | 15.43248 | 36885 ft | 434 kts | 156° |
| 2026-05-06 16:11 | 44.64106 | 15.45332 | 36510 ft | 430 kts | 156° |
| 2026-05-06 16:11 | 44.61513 | 15.47402 | 36087 ft | 427 kts | 156° |
| 2026-05-06 16:11 | 44.58939 | 15.49447 | 35645 ft | 424 kts | 157° |
| 2026-05-06 16:11 | 44.56379 | 15.51475 | 35148 ft | 420 kts | 157° |
| 2026-05-06 16:12 | 44.53842 | 15.53483 | 34530 ft | 418 kts | 157° |
| 2026-05-06 16:12 | 44.51316 | 15.55479 | 33915 ft | 416 kts | 157° |
| 2026-05-06 16:12 | 44.48802 | 15.57462 | 33290 ft | 413 kts | 158° |
| 2026-05-06 16:12 | 44.46308 | 15.59428 | 32679 ft | 410 kts | 157° |
| 2026-05-06 16:13 | 44.43831 | 15.61382 | 32083 ft | 407 kts | 157° |
| 2026-05-06 16:13 | 44.41381 | 15.63317 | 31498 ft | 403 kts | 157° |
| 2026-05-06 16:13 | 44.38949 | 15.65236 | 30909 ft | 399 kts | 157° |
| 2026-05-06 16:13 | 44.36539 | 15.67132 | 30334 ft | 396 kts | 157° |
| 2026-05-06 16:14 | 44.34145 | 15.69012 | 29770 ft | 392 kts | 157° |
| 2026-05-06 16:14 | 44.31782 | 15.70866 | 29231 ft | 388 kts | 157° |
| 2026-05-06 16:14 | 44.29437 | 15.72706 | 28699 ft | 385 kts | 156° |
| 2026-05-06 16:14 | 44.27110 | 15.74532 | 28174 ft | 381 kts | 156° |
| 2026-05-06 16:15 | 44.24807 | 15.76335 | 27668 ft | 378 kts | 156° |
| 2026-05-06 16:15 | 44.22527 | 15.78120 | 27148 ft | 374 kts | 156° |
| 2026-05-06 16:15 | 44.20260 | 15.79892 | 26628 ft | 371 kts | 156° |
| 2026-05-06 16:15 | 44.18048 | 15.81621 | 26100 ft | 368 kts | 156° |
| 2026-05-06 16:16 | 44.15827 | 15.83356 | 25564 ft | 365 kts | 156° |
| 2026-05-06 16:16 | 44.13622 | 15.85074 | 25065 ft | 362 kts | 155° |
| 2026-05-06 16:16 | 44.11420 | 15.86745 | 24583 ft | 358 kts | 157° |
| 2026-05-06 16:16 | 44.09217 | 15.88339 | 24112 ft | 354 kts | 157° |
| 2026-05-06 16:17 | 44.07031 | 15.89883 | 23510 ft | 351 kts | 158° |
| 2026-05-06 16:17 | 44.05565 | 15.90912 | 23115 ft | 349 kts | 158° |
| 2026-05-06 16:17 | 44.03407 | 15.92428 | 22524 ft | 346 kts | 157° |
| 2026-05-06 16:17 | 44.01271 | 15.93934 | 21939 ft | 341 kts | 157° |
| 2026-05-06 16:18 | 43.99181 | 15.95424 | 21284 ft | 334 kts | 156° |
| 2026-05-06 16:18 | 43.97103 | 15.96892 | 20617 ft | 335 kts | 156° |
| 2026-05-06 16:18 | 43.95038 | 15.98360 | 20014 ft | 333 kts | 156° |
| 2026-05-06 16:18 | 43.92987 | 15.99823 | 19426 ft | 330 kts | 156° |
| 2026-05-06 16:19 | 43.90953 | 16.01276 | 18847 ft | 327 kts | 156° |
| 2026-05-06 16:19 | 43.88936 | 16.02704 | 18265 ft | 323 kts | 159° |
| 2026-05-06 16:19 | 43.86823 | 16.03612 | 17689 ft | 315 kts | 174° |
| 2026-05-06 16:19 | 43.84659 | 16.03709 | 17109 ft | 309 kts | 189° |
| 2026-05-06 16:20 | 43.82561 | 16.03197 | 16532 ft | 305 kts | 193° |
| 2026-05-06 16:20 | 43.80483 | 16.02649 | 15970 ft | 302 kts | 193° |
| 2026-05-06 16:20 | 43.78426 | 16.02110 | 15416 ft | 299 kts | 193° |
| 2026-05-06 16:20 | 43.76388 | 16.01579 | 14859 ft | 297 kts | 192° |
| 2026-05-06 16:21 | 43.74368 | 16.01053 | 14308 ft | 293 kts | 193° |
| 2026-05-06 16:21 | 43.72368 | 16.00533 | 13756 ft | 291 kts | 193° |
| 2026-05-06 16:21 | 43.70388 | 16.00018 | 13232 ft | 288 kts | 193° |
| 2026-05-06 16:21 | 43.68428 | 15.99508 | 12698 ft | 285 kts | 193° |
| 2026-05-06 16:22 | 43.66487 | 15.98999 | 12154 ft | 283 kts | 193° |
| 2026-05-06 16:22 | 43.64583 | 15.98502 | 11616 ft | 281 kts | 193° |
| 2026-05-06 16:22 | 43.62675 | 15.98006 | 11097 ft | 278 kts | 192° |
| 2026-05-06 16:22 | 43.60788 | 15.97519 | 10555 ft | 274 kts | 192° |
| 2026-05-06 16:23 | 43.58920 | 15.97036 | 10010 ft | 272 kts | 192° |
| 2026-05-06 16:23 | 43.57072 | 15.96554 | 9436 ft | 268 kts | 191° |
| 2026-05-06 16:23 | 43.55250 | 15.96082 | 8798 ft | 266 kts | 191° |
| 2026-05-06 16:23 | 43.53429 | 15.95609 | 8124 ft | 266 kts | 191° |
| 2026-05-06 16:24 | 43.51629 | 15.95133 | 7760 ft | 260 kts | 191° |
| 2026-05-06 16:24 | 43.49868 | 15.94582 | 7564 ft | 259 kts | 197° |
| 2026-05-06 16:24 | 43.48228 | 15.93541 | 7466 ft | 262 kts | 211° |
| 2026-05-06 16:24 | 43.46819 | 15.91938 | 7349 ft | 264 kts | 223° |
| 2026-05-06 16:25 | 43.45607 | 15.90026 | 7246 ft | 266 kts | 228° |
| 2026-05-06 16:25 | 43.44443 | 15.88044 | 7045 ft | 266 kts | 227° |
| 2026-05-06 16:25 | 43.43244 | 15.86131 | 6817 ft | 263 kts | 225° |
| 2026-05-06 16:25 | 43.41973 | 15.84309 | 6616 ft | 264 kts | 222° |
| 2026-05-06 16:26 | 43.40668 | 15.82532 | 6421 ft | 263 kts | 222° |
| 2026-05-06 16:26 | 43.39347 | 15.80784 | 6229 ft | 263 kts | 221° |
| 2026-05-06 16:26 | 43.37984 | 15.79179 | 6008 ft | 260 kts | 209° |
| 2026-05-06 16:26 | 43.36269 | 15.78526 | 5788 ft | 259 kts | 180° |
| 2026-05-06 16:27 | 43.34495 | 15.78892 | 5580 ft | 259 kts | 165° |
| 2026-05-06 16:27 | 43.32825 | 15.79806 | 5415 ft | 259 kts | 153° |
| 2026-05-06 16:27 | 43.31458 | 15.81390 | 5280 ft | 263 kts | 125° |
| 2026-05-06 16:27 | 43.30947 | 15.83795 | 5166 ft | 268 kts | 94° |
| 2026-05-06 16:28 | 43.31058 | 15.86376 | 4795 ft | 272 kts | 88° |
| 2026-05-06 16:28 | 43.31270 | 15.88934 | 4632 ft | 270 kts | 78° |
| 2026-05-06 16:28 | 43.32233 | 15.91156 | 4470 ft | 277 kts | 46° |
| 2026-05-06 16:28 | 43.33664 | 15.92923 | 4253 ft | 276 kts | 45° |
| 2026-05-06 16:29 | 43.34943 | 15.94860 | 4096 ft | 273 kts | 54° |
| 2026-05-06 16:29 | 43.36061 | 15.96953 | 3922 ft | 270 kts | 58° |
| 2026-05-06 16:29 | 43.37051 | 15.99100 | 3745 ft | 262 kts | 61° |
| 2026-05-06 16:29 | 43.37991 | 16.01196 | 3611 ft | 253 kts | 60° |
| 2026-05-06 16:30 | 43.38992 | 16.03141 | 3449 ft | 247 kts | 52° |
| 2026-05-06 16:30 | 43.39768 | 16.04305 | 3343 ft | 243 kts | 49° |
| 2026-05-06 16:30 | 43.41186 | 16.06591 | 3141 ft | 230 kts | 54° |
| 2026-05-06 16:30 | 43.42075 | 16.08351 | 3007 ft | 218 kts | 59° |
| 2026-05-06 16:31 | 43.42839 | 16.10088 | 2899 ft | 205 kts | 64° |
| 2026-05-06 16:31 | 43.43542 | 16.11715 | 2921 ft | 189 kts | 59° |
| 2026-05-06 16:31 | 43.44378 | 16.13019 | 2868 ft | 176 kts | 47° |
| 2026-05-06 16:31 | 43.45227 | 16.14160 | 2736 ft | 166 kts | 50° |
| 2026-05-06 16:32 | 43.45955 | 16.15386 | 2467 ft | 165 kts | 56° |
| 2026-05-06 16:32 | 43.46642 | 16.16659 | 2152 ft | 166 kts | 57° |
| 2026-05-06 16:32 | 43.47321 | 16.17920 | 1934 ft | 157 kts | 57° |
| 2026-05-06 16:32 | 43.47932 | 16.19078 | 1731 ft | 144 kts | 58° |
| 2026-05-06 16:33 | 43.48492 | 16.20131 | 1587 ft | 132 kts | 58° |
| 2026-05-06 16:33 | 43.49045 | 16.21118 | 1365 ft | 128 kts | 56° |
| 2026-05-06 16:33 | 43.49608 | 16.22048 | 1260 ft | 126 kts | 52° |
| 2026-05-06 16:34 | 43.50651 | 16.23962 | 953 ft | 124 kts | 58° |
| 2026-05-06 16:34 | 43.51168 | 16.24914 | 779 ft | 124 kts | 54° |
| 2026-05-06 16:34 | 43.51693 | 16.25852 | 604 ft | 124 kts | 53° |
| 2026-05-06 16:34 | 43.52226 | 16.26787 | 442 ft | 124 kts | 56° |
| 2026-05-06 16:35 | 43.52751 | 16.27726 | 272 ft | 124 kts | 55° |
| 2026-05-06 16:35 | 43.53272 | 16.28664 | 97 ft | 122 kts | 54° |
| 2026-05-06 16:35 | 43.53726 | 16.29492 | 79 ft | 88 kts | 53° |
| 2026-05-06 16:35 | 43.53955 | 16.29906 | 72 ft | 25 kts | 52° |
| 2026-05-06 16:36 | 43.54042 | 16.30062 | 65 ft | 3 kts | 52° |
| 2026-05-06 16:36 | 43.54057 | 16.30095 | 65 ft | 5 kts | 79° |
| 2026-05-06 16:36 | 43.54017 | 16.30103 | 64 ft | 9 kts | 194° |
| 2026-05-06 16:36 | 43.53958 | 16.30084 | 66 ft | 9 kts | 194° |
| 2026-05-06 16:37 | 43.53904 | 16.30058 | 68 ft | 8 kts | 208° |
| 2026-05-06 16:37 | 43.53886 | 16.30024 | 68 ft | 0 kts | 234° |
| 2026-05-06 16:37 | 43.53885 | 16.30023 | 68 ft | 1 kts | 234° |
| 2026-05-06 16:38 | 43.53874 | 16.30002 | 68 ft | 5 kts | 234° |
| 2026-05-06 16:38 | 43.53843 | 16.29944 | 68 ft | 10 kts | 232° |
| 2026-05-06 16:38 | 43.53782 | 16.29839 | 68 ft | 18 kts | 232° |
| 2026-05-06 16:38 | 43.53701 | 16.29691 | 68 ft | 21 kts | 233° |
| 2026-05-06 16:39 | 43.53658 | 16.29613 | 68 ft | 4 kts | 233° |
| 2026-05-06 16:39 | 43.53626 | 16.29590 | 68 ft | 7 kts | 167° |
| 2026-05-06 16:39 | 43.53573 | 16.29643 | 68 ft | 11 kts | 143° |
| 2026-05-06 16:39 | 43.53512 | 16.29705 | 68 ft | 10 kts | 143° |
| 2026-05-06 16:40 | 43.53507 | 16.29770 | 68 ft | 5 kts | 102° |
| 2026-05-06 16:40 | 43.53505 | 16.29785 | 68 ft | 0 kts | 100° |